GCGM Airport Information

Runway Information
Runway 09 Length 4921 ft width 98 ft
Elevation 716 ft Threshold 0 ft Heading 81
Runway 27 Length 4921 ft Width 98 ft
Elevation 712 ft Threshold 0 ft Heading 261
Airport Frequencies
Type GND Name GND Frequency 121.7 MHZ
Type TWR Name TWR Frequency 118.4 MHZ
Airport Navaids
Type VOR-DME Name La Gomera Frequency 116000 KHZ
Airport Weather Information & NOTAM
ADDS - METARS form results

(1142 UTC 22 September 2020)
Data provider http://aviationweather.gov/metar/data/
 
METAR text: GCGM 221130Z VRB04KT CAVOK 25/21 Q1019 RMK R09/VRB03KT ARP/20004KT 140V250
Conditions at: GCGM (LA GOMERA ARPT , ES) observed 1130 UTC 22 September 2020
Temperature: 25.0°C (77°F)
Dewpoint: 21.0°C (70°F) [RH = 79%]
Pressure (altimeter): 30.09 inches Hg (1019.0 mb)
Winds: variable direction winds at 5 MPH (4 knots; 2.1 m/s)
Visibility: 6 or more miles (10+ km)
Ceiling: ceiling and visibility are OK
Clouds: unknown
Weather: no significant weather observed at this time

METAR text: GCGM 221100Z VRB02KT CAVOK 25/21 Q1018 RMK R09/VRB02KT ARP/20003KT 130V270
Conditions at: GCGM (LA GOMERA ARPT , ES) observed 1100 UTC 22 September 2020
Temperature: 25.0°C (77°F)
Dewpoint: 21.0°C (70°F) [RH = 79%]
Pressure (altimeter): 30.06 inches Hg (1018.0 mb)
Winds: variable direction winds at 2 MPH (2 knots; 1.0 m/s)
Visibility: 6 or more miles (10+ km)
Ceiling: ceiling and visibility are OK
Clouds: unknown
Weather: no significant weather observed at this time

Forecast for: GCGM (LA GOMERA ARPT , ES)
Text: TAF GCGM 220800Z 2209/2309 22009KT CAVOK TX29/2214Z TN21/2306Z
Forecast period: 0900 UTC 22 September 2020 to 0900 UTC 23 September 2020
Forecast type: FROM: standard forecast or significant change
Winds: from the SW (220 degrees) at 10 MPH (9 knots; 4.6 m/s)
Visibility: 6 or more miles (10+ km)
Ceiling: unknown
Clouds: missing
Weather: no significant weather forecast for this period
Text: PROB30
Forecast period: 1400 to 1700 UTC 22 September 2020
Forecast type: TEMPORARY: The following changes expected for less than half the time period
Winds: from the SE (130 degrees) at 12 MPH (10 knots; 5.1 m/s)
Visibility: missing
Ceiling: unknown
Clouds: missing
Weather: no significant weather forecast for this period